sensor_id;sensor_type;location;lat;lon;timestamp;P1;durP1;ratioP1;P2;durP2;ratioP2
11267;SDS011;72685;47.474;9.416;2024-03-08T12:06:37;22.03;;;12.27;;
11267;SDS011;72685;47.474;9.416;2024-03-08T12:09:04;26.43;;;13.33;;
11267;SDS011;72685;47.474;9.416;2024-03-08T12:11:34;22.53;;;12.83;;
11267;SDS011;72685;47.474;9.416;2024-03-08T12:14:01;22.70;;;13.47;;
11267;SDS011;72685;47.474;9.416;2024-03-08T12:16:26;24.83;;;12.07;;
11267;SDS011;72685;47.474;9.416;2024-03-08T12:18:52;18.23;;;12.17;;
11267;SDS011;72685;47.474;9.416;2024-03-08T12:21:21;18.40;;;11.97;;
11267;SDS011;72685;47.474;9.416;2024-03-08T12:24:01;22.60;;;12.33;;
11267;SDS011;72685;47.474;9.416;2024-03-08T12:26:28;20.20;;;11.47;;
11267;SDS011;72685;47.474;9.416;2024-03-08T12:28:54;20.97;;;11.40;;
11267;SDS011;72685;47.474;9.416;2024-03-08T12:31:39;23.83;;;12.77;;
11267;SDS011;72685;47.474;9.416;2024-03-08T12:34:07;20.17;;;12.57;;
11267;SDS011;72685;47.474;9.416;2024-03-08T12:36:35;19.80;;;12.13;;
11267;SDS011;72685;47.474;9.416;2024-03-08T12:39:01;18.27;;;11.43;;
11267;SDS011;72685;47.474;9.416;2024-03-08T12:41:29;19.77;;;12.27;;
11267;SDS011;72685;47.474;9.416;2024-03-08T12:43:54;22.97;;;12.77;;
11267;SDS011;72685;47.474;9.416;2024-03-08T12:46:21;19.83;;;11.53;;
11267;SDS011;72685;47.474;9.416;2024-03-08T12:48:47;18.90;;;10.50;;
11267;SDS011;72685;47.474;9.416;2024-03-08T12:51:13;19.70;;;12.20;;
11267;SDS011;72685;47.474;9.416;2024-03-08T12:53:41;20.07;;;12.53;;
11267;SDS011;72685;47.474;9.416;2024-03-08T12:56:10;19.53;;;12.90;;
11267;SDS011;72685;47.474;9.416;2024-03-08T12:58:37;21.70;;;12.30;;
11267;SDS011;72685;47.474;9.416;2024-03-08T13:01:03;17.97;;;11.07;;
11267;SDS011;72685;47.474;9.416;2024-03-08T13:03:33;21.00;;;12.90;;
11267;SDS011;72685;47.474;9.416;2024-03-08T13:06:01;17.13;;;11.00;;
11267;SDS011;72685;47.474;9.416;2024-03-08T13:08:27;19.67;;;11.73;;
11267;SDS011;72685;47.474;9.416;2024-03-08T13:10:54;18.63;;;11.43;;
11267;SDS011;72685;47.474;9.416;2024-03-08T13:13:20;18.50;;;11.57;;
11267;SDS011;72685;47.474;9.416;2024-03-08T13:15:45;19.97;;;12.17;;
11267;SDS011;72685;47.474;9.416;2024-03-08T13:18:11;22.23;;;12.27;;
11267;SDS011;72685;47.474;9.416;2024-03-08T13:20:36;22.40;;;12.37;;
11267;SDS011;72685;47.474;9.416;2024-03-08T13:23:04;20.83;;;11.33;;
11267;SDS011;72685;47.474;9.416;2024-03-08T13:25:30;18.83;;;12.10;;
11267;SDS011;72685;47.474;9.416;2024-03-08T13:27:56;20.13;;;11.87;;
11267;SDS011;72685;47.474;9.416;2024-03-08T13:30:24;29.93;;;12.60;;
11267;SDS011;72685;47.474;9.416;2024-03-08T13:32:54;19.40;;;12.07;;
11267;SDS011;72685;47.474;9.416;2024-03-08T13:35:20;21.27;;;12.80;;
11267;SDS011;72685;47.474;9.416;2024-03-08T13:37:50;20.13;;;11.50;;
11267;SDS011;72685;47.474;9.416;2024-03-08T13:40:16;19.63;;;12.93;;
11267;SDS011;72685;47.474;9.416;2024-03-08T13:42:48;16.83;;;11.10;;
11267;SDS011;72685;47.474;9.416;2024-03-08T13:45:14;19.10;;;12.10;;
11267;SDS011;72685;47.474;9.416;2024-03-08T13:47:43;21.30;;;12.73;;
11267;SDS011;72685;47.474;9.416;2024-03-08T13:50:09;20.57;;;12.20;;
11267;SDS011;72685;47.474;9.416;2024-03-08T13:52:40;17.27;;;12.00;;
11267;SDS011;72685;47.474;9.416;2024-03-08T13:55:06;20.40;;;12.50;;
11267;SDS011;72685;47.474;9.416;2024-03-08T13:57:32;20.83;;;12.27;;
11267;SDS011;72685;47.474;9.416;2024-03-08T13:59:58;22.00;;;13.63;;
11267;SDS011;72685;47.474;9.416;2024-03-08T14:02:24;18.50;;;12.40;;
11267;SDS011;72685;47.474;9.416;2024-03-08T14:04:53;20.67;;;12.87;;
11267;SDS011;72685;47.474;9.416;2024-03-08T14:07:19;18.90;;;12.07;;
11267;SDS011;72685;47.474;9.416;2024-03-08T14:09:45;29.23;;;16.23;;
11267;SDS011;72685;47.474;9.416;2024-03-08T14:12:11;22.87;;;13.20;;
11267;SDS011;72685;47.474;9.416;2024-03-08T14:14:36;17.77;;;12.10;;
11267;SDS011;72685;47.474;9.416;2024-03-08T14:17:02;19.70;;;12.13;;
11267;SDS011;72685;47.474;9.416;2024-03-08T14:19:28;20.60;;;12.83;;
11267;SDS011;72685;47.474;9.416;2024-03-08T14:21:56;21.67;;;12.40;;
11267;SDS011;72685;47.474;9.416;2024-03-08T14:24:21;17.73;;;12.40;;
11267;SDS011;72685;47.474;9.416;2024-03-08T14:26:47;22.77;;;13.47;;
11267;SDS011;72685;47.474;9.416;2024-03-08T14:29:14;20.43;;;11.93;;
11267;SDS011;72685;47.474;9.416;2024-03-08T14:31:40;21.13;;;13.30;;
11267;SDS011;72685;47.474;9.416;2024-03-08T14:34:06;23.13;;;13.80;;
11267;SDS011;72685;47.474;9.416;2024-03-08T14:36:32;20.50;;;12.83;;
11267;SDS011;72685;47.474;9.416;2024-03-08T14:38:57;19.47;;;12.80;;
11267;SDS011;72685;47.474;9.416;2024-03-08T14:41:23;20.70;;;12.17;;
11267;SDS011;72685;47.474;9.416;2024-03-08T14:43:48;20.47;;;11.27;;
11267;SDS011;72685;47.474;9.416;2024-03-08T14:46:14;21.40;;;12.90;;
11267;SDS011;72685;47.474;9.416;2024-03-08T14:48:49;17.93;;;11.77;;
11267;SDS011;72685;47.474;9.416;2024-03-08T14:51:17;16.10;;;12.13;;
11267;SDS011;72685;47.474;9.416;2024-03-08T14:53:46;18.73;;;12.63;;
11267;SDS011;72685;47.474;9.416;2024-03-08T14:56:15;18.80;;;13.20;;
11267;SDS011;72685;47.474;9.416;2024-03-08T14:58:44;22.70;;;13.37;;
11267;SDS011;72685;47.474;9.416;2024-03-08T15:01:11;19.40;;;12.80;;
11267;SDS011;72685;47.474;9.416;2024-03-08T15:03:39;16.43;;;11.53;;
11267;SDS011;72685;47.474;9.416;2024-03-08T15:06:05;15.57;;;11.70;;
11267;SDS011;72685;47.474;9.416;2024-03-08T15:08:35;19.47;;;12.30;;
11267;SDS011;72685;47.474;9.416;2024-03-08T15:11:01;19.07;;;12.70;;
11267;SDS011;72685;47.474;9.416;2024-03-08T15:13:26;18.83;;;12.67;;
11267;SDS011;72685;47.474;9.416;2024-03-08T15:16:06;18.87;;;12.87;;
11267;SDS011;72685;47.474;9.416;2024-03-08T15:18:32;19.00;;;12.17;;
11267;SDS011;72685;47.474;9.416;2024-03-08T15:21:05;19.07;;;12.47;;
11267;SDS011;72685;47.474;9.416;2024-03-08T15:23:37;18.57;;;11.97;;
11267;SDS011;72685;47.474;9.416;2024-03-08T15:26:08;18.63;;;13.57;;
11267;SDS011;72685;47.474;9.416;2024-03-08T15:28:34;18.40;;;12.53;;
11267;SDS011;72685;47.474;9.416;2024-03-08T15:31:06;16.63;;;12.23;;
11267;SDS011;72685;47.474;9.416;2024-03-08T15:33:33;17.43;;;11.70;;
11267;SDS011;72685;47.474;9.416;2024-03-08T15:35:59;22.67;;;13.37;;
11267;SDS011;72685;47.474;9.416;2024-03-08T15:38:29;16.60;;;11.43;;
11267;SDS011;72685;47.474;9.416;2024-03-08T15:40:55;18.73;;;13.30;;
11267;SDS011;72685;47.474;9.416;2024-03-08T15:43:23;15.23;;;12.13;;
11267;SDS011;72685;47.474;9.416;2024-03-08T15:45:50;21.47;;;13.10;;
11267;SDS011;72685;47.474;9.416;2024-03-08T15:48:15;20.80;;;12.83;;
11267;SDS011;72685;47.474;9.416;2024-03-08T15:50:41;19.03;;;12.80;;
11267;SDS011;72685;47.474;9.416;2024-03-08T15:53:07;18.13;;;12.60;;
11267;SDS011;72685;47.474;9.416;2024-03-08T15:55:32;18.77;;;12.87;;
11267;SDS011;72685;47.474;9.416;2024-03-08T15:58:00;21.80;;;13.00;;
11267;SDS011;72685;47.474;9.416;2024-03-08T16:00:25;20.37;;;13.23;;
11267;SDS011;72685;47.474;9.416;2024-03-08T16:03:11;18.40;;;12.57;;
11267;SDS011;72685;47.474;9.416;2024-03-08T16:05:38;19.00;;;12.43;;
11267;SDS011;72685;47.474;9.416;2024-03-08T16:08:06;21.90;;;15.88;;
11267;SDS011;72685;47.474;9.416;2024-03-08T16:10:34;18.57;;;13.80;;
11267;SDS011;72685;47.474;9.416;2024-03-08T16:13:01;18.93;;;12.90;;
11267;SDS011;72685;47.474;9.416;2024-03-08T16:15:28;24.23;;;16.77;;
11267;SDS011;72685;47.474;9.416;2024-03-08T16:17:54;20.93;;;16.30;;
11267;SDS011;72685;47.474;9.416;2024-03-08T16:20:19;21.57;;;14.23;;
11267;SDS011;72685;47.474;9.416;2024-03-08T16:22:46;20.93;;;13.93;;
11267;SDS011;72685;47.474;9.416;2024-03-08T16:25:12;23.20;;;14.80;;
11267;SDS011;72685;47.474;9.416;2024-03-08T16:27:39;21.37;;;14.07;;
11267;SDS011;72685;47.474;9.416;2024-03-08T16:30:06;19.00;;;12.63;;
11267;SDS011;72685;47.474;9.416;2024-03-08T16:32:44;22.10;;;13.67;;
11267;SDS011;72685;47.474;9.416;2024-03-08T16:35:16;19.50;;;13.77;;
11267;SDS011;72685;47.474;9.416;2024-03-08T16:37:43;20.27;;;14.07;;
11267;SDS011;72685;47.474;9.416;2024-03-08T16:40:09;20.60;;;13.43;;
11267;SDS011;72685;47.474;9.416;2024-03-08T16:42:45;20.77;;;12.90;;
11267;SDS011;72685;47.474;9.416;2024-03-08T16:45:13;25.47;;;14.30;;
11267;SDS011;72685;47.474;9.416;2024-03-08T16:47:39;20.23;;;13.10;;
11267;SDS011;72685;47.474;9.416;2024-03-08T16:50:06;21.60;;;13.97;;
11267;SDS011;72685;47.474;9.416;2024-03-08T16:52:33;22.30;;;13.50;;
11267;SDS011;72685;47.474;9.416;2024-03-08T16:55:01;24.73;;;13.43;;
11267;SDS011;72685;47.474;9.416;2024-03-08T16:57:32;20.03;;;12.20;;
11267;SDS011;72685;47.474;9.416;2024-03-08T16:59:57;19.37;;;12.50;;
11267;SDS011;72685;47.474;9.416;2024-03-08T17:02:23;28.20;;;18.57;;
11267;SDS011;72685;47.474;9.416;2024-03-08T17:04:48;28.00;;;18.63;;
11267;SDS011;72685;47.474;9.416;2024-03-08T17:07:14;26.85;;;17.45;;
11267;SDS011;72685;47.474;9.416;2024-03-08T17:09:40;27.05;;;17.92;;
11267;SDS011;72685;47.474;9.416;2024-03-08T17:12:06;25.02;;;18.25;;
11267;SDS011;72685;47.474;9.416;2024-03-08T17:14:35;26.40;;;15.47;;
11267;SDS011;72685;47.474;9.416;2024-03-08T17:17:05;21.60;;;13.97;;
11267;SDS011;72685;47.474;9.416;2024-03-08T17:19:33;22.10;;;13.50;;
11267;SDS011;72685;47.474;9.416;2024-03-08T17:21:59;19.77;;;13.73;;
11267;SDS011;72685;47.474;9.416;2024-03-08T17:24:26;22.63;;;13.93;;
11267;SDS011;72685;47.474;9.416;2024-03-08T17:26:51;27.97;;;15.57;;
11267;SDS011;72685;47.474;9.416;2024-03-08T17:29:17;22.07;;;13.40;;
11267;SDS011;72685;47.474;9.416;2024-03-08T17:31:46;22.93;;;13.17;;
11267;SDS011;72685;47.474;9.416;2024-03-08T17:34:12;24.23;;;17.17;;
11267;SDS011;72685;47.474;9.416;2024-03-08T17:36:46;27.85;;;18.40;;
11267;SDS011;72685;47.474;9.416;2024-03-08T17:39:12;29.95;;;19.42;;
11267;SDS011;72685;47.474;9.416;2024-03-08T17:41:49;25.17;;;17.88;;
11267;SDS011;72685;47.474;9.416;2024-03-08T17:44:15;26.48;;;18.40;;
11267;SDS011;72685;47.474;9.416;2024-03-08T17:46:42;27.73;;;19.33;;
11267;SDS011;72685;47.474;9.416;2024-03-08T17:49:08;26.15;;;18.42;;
11267;SDS011;72685;47.474;9.416;2024-03-08T17:51:34;25.88;;;18.25;;
11267;SDS011;72685;47.474;9.416;2024-03-08T17:54:00;34.22;;;22.77;;
11267;SDS011;72685;47.474;9.416;2024-03-08T17:56:27;25.05;;;17.58;;
11267;SDS011;72685;47.474;9.416;2024-03-08T17:58:53;31.80;;;20.60;;
11267;SDS011;72685;47.474;9.416;2024-03-08T18:01:18;34.33;;;20.83;;
11267;SDS011;72685;47.474;9.416;2024-03-08T18:03:44;32.40;;;21.63;;
11267;SDS011;72685;47.474;9.416;2024-03-08T18:06:10;33.08;;;21.90;;
11267;SDS011;72685;47.474;9.416;2024-03-08T18:08:35;29.93;;;19.23;;
11267;SDS011;72685;47.474;9.416;2024-03-08T18:11:02;33.05;;;20.98;;
11267;SDS011;72685;47.474;9.416;2024-03-08T18:13:28;32.78;;;22.38;;
11267;SDS011;72685;47.474;9.416;2024-03-08T18:15:55;38.80;;;23.38;;
11267;SDS011;72685;47.474;9.416;2024-03-08T18:18:21;40.08;;;24.17;;
11267;SDS011;72685;47.474;9.416;2024-03-08T18:20:47;36.88;;;23.00;;
11267;SDS011;72685;47.474;9.416;2024-03-08T18:23:13;42.77;;;25.03;;
11267;SDS011;72685;47.474;9.416;2024-03-08T18:25:39;38.42;;;23.48;;
11267;SDS011;72685;47.474;9.416;2024-03-08T18:28:05;38.65;;;23.50;;
11267;SDS011;72685;47.474;9.416;2024-03-08T18:30:31;35.03;;;22.60;;
11267;SDS011;72685;47.474;9.416;2024-03-08T18:32:57;32.53;;;21.35;;
11267;SDS011;72685;47.474;9.416;2024-03-08T18:35:23;34.23;;;22.77;;
11267;SDS011;72685;47.474;9.416;2024-03-08T18:37:48;38.47;;;23.83;;
11267;SDS011;72685;47.474;9.416;2024-03-08T18:40:17;35.72;;;22.98;;
11267;SDS011;72685;47.474;9.416;2024-03-08T18:42:47;35.90;;;23.10;;
11267;SDS011;72685;47.474;9.416;2024-03-08T18:45:14;34.30;;;22.33;;
11267;SDS011;72685;47.474;9.416;2024-03-08T18:47:45;35.60;;;23.02;;
11267;SDS011;72685;47.474;9.416;2024-03-08T18:50:15;34.70;;;22.85;;
11267;SDS011;72685;47.474;9.416;2024-03-08T18:52:42;35.72;;;23.17;;
11267;SDS011;72685;47.474;9.416;2024-03-08T18:55:09;34.92;;;22.75;;
11267;SDS011;72685;47.474;9.416;2024-03-08T18:57:39;37.42;;;24.30;;
11267;SDS011;72685;47.474;9.416;2024-03-08T19:00:09;29.10;;;17.00;;
11267;SDS011;72685;47.474;9.416;2024-03-08T19:02:49;35.00;;;21.07;;
11267;SDS011;72685;47.474;9.416;2024-03-08T19:05:24;32.67;;;21.80;;
11267;SDS011;72685;47.474;9.416;2024-03-08T19:07:50;30.92;;;20.67;;
11267;SDS011;72685;47.474;9.416;2024-03-08T19:10:18;33.95;;;21.10;;
11267;SDS011;72685;47.474;9.416;2024-03-08T19:12:45;34.00;;;21.52;;
11267;SDS011;72685;47.474;9.416;2024-03-08T19:15:13;35.35;;;21.95;;
11267;SDS011;72685;47.474;9.416;2024-03-08T19:17:41;31.67;;;21.70;;
11267;SDS011;72685;47.474;9.416;2024-03-08T19:20:07;32.50;;;20.92;;
11267;SDS011;72685;47.474;9.416;2024-03-08T19:22:41;32.50;;;20.30;;
11267;SDS011;72685;47.474;9.416;2024-03-08T19:25:08;32.77;;;20.90;;
11267;SDS011;72685;47.474;9.416;2024-03-08T19:27:35;30.40;;;20.25;;
11267;SDS011;72685;47.474;9.416;2024-03-08T19:30:02;36.70;;;22.40;;
11267;SDS011;72685;47.474;9.416;2024-03-08T19:32:32;33.70;;;22.20;;
11267;SDS011;72685;47.474;9.416;2024-03-08T19:34:59;32.05;;;20.65;;
11267;SDS011;72685;47.474;9.416;2024-03-08T19:37:25;32.35;;;21.48;;
11267;SDS011;72685;47.474;9.416;2024-03-08T19:39:51;33.38;;;22.00;;
11267;SDS011;72685;47.474;9.416;2024-03-08T19:42:16;35.30;;;23.20;;
11267;SDS011;72685;47.474;9.416;2024-03-08T19:44:44;34.05;;;22.58;;
11267;SDS011;72685;47.474;9.416;2024-03-08T19:47:13;34.70;;;22.60;;
11267;SDS011;72685;47.474;9.416;2024-03-08T19:49:41;36.00;;;23.40;;
11267;SDS011;72685;47.474;9.416;2024-03-08T19:52:07;36.28;;;23.58;;
11267;SDS011;72685;47.474;9.416;2024-03-08T19:54:32;38.88;;;24.20;;
11267;SDS011;72685;47.474;9.416;2024-03-08T19:56:58;33.17;;;22.83;;
11267;SDS011;72685;47.474;9.416;2024-03-08T19:59:31;39.28;;;23.45;;
11267;SDS011;72685;47.474;9.416;2024-03-08T20:02:06;36.35;;;23.45;;
11267;SDS011;72685;47.474;9.416;2024-03-08T20:04:31;34.17;;;23.45;;
11267;SDS011;72685;47.474;9.416;2024-03-08T20:06:57;36.70;;;23.70;;
11267;SDS011;72685;47.474;9.416;2024-03-08T20:09:22;35.13;;;23.73;;
11267;SDS011;72685;47.474;9.416;2024-03-08T20:11:50;38.15;;;24.38;;
11267;SDS011;72685;47.474;9.416;2024-03-08T20:14:15;36.23;;;24.07;;
11267;SDS011;72685;47.474;9.416;2024-03-08T20:16:42;36.10;;;24.23;;
11267;SDS011;72685;47.474;9.416;2024-03-08T20:19:08;38.83;;;25.15;;
11267;SDS011;72685;47.474;9.416;2024-03-08T20:21:35;37.90;;;24.48;;
11267;SDS011;72685;47.474;9.416;2024-03-08T20:24:00;36.25;;;24.17;;
11267;SDS011;72685;47.474;9.416;2024-03-08T20:26:26;38.75;;;24.25;;
11267;SDS011;72685;47.474;9.416;2024-03-08T20:28:51;35.55;;;23.40;;
11267;SDS011;72685;47.474;9.416;2024-03-08T20:31:17;37.33;;;25.07;;
11267;SDS011;72685;47.474;9.416;2024-03-08T20:33:42;36.43;;;24.33;;
11267;SDS011;72685;47.474;9.416;2024-03-08T20:36:09;36.53;;;24.50;;
11267;SDS011;72685;47.474;9.416;2024-03-08T20:38:35;35.22;;;24.08;;
11267;SDS011;72685;47.474;9.416;2024-03-08T20:41:04;34.33;;;23.50;;
11267;SDS011;72685;47.474;9.416;2024-03-08T20:43:37;34.17;;;22.73;;
11267;SDS011;72685;47.474;9.416;2024-03-08T20:46:03;33.30;;;22.38;;
11267;SDS011;72685;47.474;9.416;2024-03-08T20:48:32;35.38;;;22.85;;
11267;SDS011;72685;47.474;9.416;2024-03-08T20:50:59;33.42;;;22.77;;
11267;SDS011;72685;47.474;9.416;2024-03-08T20:53:26;35.42;;;23.05;;
11267;SDS011;72685;47.474;9.416;2024-03-08T20:55:53;35.38;;;24.00;;
11267;SDS011;72685;47.474;9.416;2024-03-08T20:58:18;33.73;;;23.20;;
11267;SDS011;72685;47.474;9.416;2024-03-08T21:00:46;31.23;;;22.10;;
11267;SDS011;72685;47.474;9.416;2024-03-08T21:03:24;32.30;;;22.23;;
11267;SDS011;72685;47.474;9.416;2024-03-08T21:05:52;34.42;;;21.70;;
11267;SDS011;72685;47.474;9.416;2024-03-08T21:08:21;33.45;;;21.88;;
11267;SDS011;72685;47.474;9.416;2024-03-08T21:10:52;32.45;;;22.23;;
11267;SDS011;72685;47.474;9.416;2024-03-08T21:13:21;30.90;;;20.58;;
11267;SDS011;72685;47.474;9.416;2024-03-08T21:15:49;36.03;;;22.67;;
11267;SDS011;72685;47.474;9.416;2024-03-08T21:18:14;29.58;;;20.63;;
11267;SDS011;72685;47.474;9.416;2024-03-08T21:20:40;31.97;;;22.10;;
11267;SDS011;72685;47.474;9.416;2024-03-08T21:23:08;29.75;;;20.65;;
11267;SDS011;72685;47.474;9.416;2024-03-08T21:25:36;28.92;;;20.50;;
11267;SDS011;72685;47.474;9.416;2024-03-08T21:28:03;32.03;;;22.42;;
11267;SDS011;72685;47.474;9.416;2024-03-08T21:30:36;27.98;;;19.52;;
11267;SDS011;72685;47.474;9.416;2024-03-08T21:33:02;27.00;;;18.40;;
11267;SDS011;72685;47.474;9.416;2024-03-08T21:35:30;31.75;;;22.17;;
11267;SDS011;72685;47.474;9.416;2024-03-08T21:37:58;30.10;;;20.20;;
11267;SDS011;72685;47.474;9.416;2024-03-08T21:40:24;28.13;;;20.67;;
11267;SDS011;72685;47.474;9.416;2024-03-08T21:42:51;31.02;;;20.20;;
11267;SDS011;72685;47.474;9.416;2024-03-08T21:45:18;31.08;;;20.63;;
11267;SDS011;72685;47.474;9.416;2024-03-08T21:47:46;28.20;;;19.77;;
11267;SDS011;72685;47.474;9.416;2024-03-08T21:50:12;27.17;;;18.30;;
11267;SDS011;72685;47.474;9.416;2024-03-08T21:52:46;28.52;;;19.27;;
11267;SDS011;72685;47.474;9.416;2024-03-08T21:55:14;29.75;;;21.02;;
11267;SDS011;72685;47.474;9.416;2024-03-08T21:57:40;28.05;;;21.23;;
11267;SDS011;72685;47.474;9.416;2024-03-08T22:00:06;30.80;;;21.35;;
11267;SDS011;72685;47.474;9.416;2024-03-08T22:02:41;28.30;;;20.23;;
11267;SDS011;72685;47.474;9.416;2024-03-08T22:05:10;26.70;;;18.50;;
11267;SDS011;72685;47.474;9.416;2024-03-08T22:07:44;26.20;;;19.48;;
11267;SDS011;72685;47.474;9.416;2024-03-08T22:10:10;29.05;;;19.23;;
11267;SDS011;72685;47.474;9.416;2024-03-08T22:12:35;31.88;;;22.35;;
11267;SDS011;72685;47.474;9.416;2024-03-08T22:15:01;32.87;;;22.23;;
11267;SDS011;72685;47.474;9.416;2024-03-08T22:17:26;32.83;;;22.07;;
11267;SDS011;72685;47.474;9.416;2024-03-08T22:19:52;33.57;;;22.77;;
11267;SDS011;72685;47.474;9.416;2024-03-08T22:22:18;32.95;;;22.95;;
11267;SDS011;72685;47.474;9.416;2024-03-08T22:24:44;32.92;;;22.25;;
11267;SDS011;72685;47.474;9.416;2024-03-08T22:27:22;34.90;;;22.60;;
11267;SDS011;72685;47.474;9.416;2024-03-08T22:29:48;31.38;;;21.95;;
11267;SDS011;72685;47.474;9.416;2024-03-08T22:32:17;34.95;;;23.13;;
11267;SDS011;72685;47.474;9.416;2024-03-08T22:34:42;32.17;;;22.67;;
11267;SDS011;72685;47.474;9.416;2024-03-08T22:37:07;34.92;;;22.75;;
11267;SDS011;72685;47.474;9.416;2024-03-08T22:39:37;32.65;;;22.27;;
11267;SDS011;72685;47.474;9.416;2024-03-08T22:42:03;32.92;;;21.77;;
11267;SDS011;72685;47.474;9.416;2024-03-08T22:44:33;33.40;;;22.40;;
11267;SDS011;72685;47.474;9.416;2024-03-08T22:47:00;33.03;;;22.13;;
11267;SDS011;72685;47.474;9.416;2024-03-08T22:49:25;33.65;;;21.83;;
11267;SDS011;72685;47.474;9.416;2024-03-08T22:51:53;34.25;;;22.85;;
11267;SDS011;72685;47.474;9.416;2024-03-08T22:54:19;33.35;;;23.17;;
11267;SDS011;72685;47.474;9.416;2024-03-08T22:56:48;33.97;;;22.70;;
11267;SDS011;72685;47.474;9.416;2024-03-08T22:59:14;36.50;;;23.52;;
11267;SDS011;72685;47.474;9.416;2024-03-08T23:01:40;32.77;;;21.63;;
11267;SDS011;72685;47.474;9.416;2024-03-08T23:04:05;34.50;;;22.77;;
11267;SDS011;72685;47.474;9.416;2024-03-08T23:06:34;33.08;;;22.00;;
11267;SDS011;72685;47.474;9.416;2024-03-08T23:09:01;35.40;;;23.40;;
11267;SDS011;72685;47.474;9.416;2024-03-08T23:11:26;34.20;;;22.65;;
11267;SDS011;72685;47.474;9.416;2024-03-08T23:13:53;32.75;;;22.25;;
11267;SDS011;72685;47.474;9.416;2024-03-08T23:16:21;29.13;;;20.73;;
11267;SDS011;72685;47.474;9.416;2024-03-08T23:18:47;32.92;;;21.67;;
11267;SDS011;72685;47.474;9.416;2024-03-08T23:21:13;35.15;;;22.20;;
11267;SDS011;72685;47.474;9.416;2024-03-08T23:23:39;34.17;;;22.50;;
11267;SDS011;72685;47.474;9.416;2024-03-08T23:26:05;34.53;;;22.70;;
11267;SDS011;72685;47.474;9.416;2024-03-08T23:28:31;36.50;;;22.38;;
11267;SDS011;72685;47.474;9.416;2024-03-08T23:30:57;33.35;;;21.33;;
11267;SDS011;72685;47.474;9.416;2024-03-08T23:33:23;32.90;;;20.75;;
11267;SDS011;72685;47.474;9.416;2024-03-08T23:35:49;32.28;;;20.88;;
11267;SDS011;72685;47.474;9.416;2024-03-08T23:38:16;31.65;;;20.23;;
11267;SDS011;72685;47.474;9.416;2024-03-08T23:40:43;33.72;;;21.20;;
11267;SDS011;72685;47.474;9.416;2024-03-08T23:43:10;30.45;;;20.83;;
11267;SDS011;72685;47.474;9.416;2024-03-08T23:45:35;31.35;;;21.63;;
11267;SDS011;72685;47.474;9.416;2024-03-08T23:48:03;31.08;;;20.48;;
11267;SDS011;72685;47.474;9.416;2024-03-08T23:50:29;30.48;;;20.25;;
11267;SDS011;72685;47.474;9.416;2024-03-08T23:52:56;31.05;;;20.08;;
11267;SDS011;72685;47.474;9.416;2024-03-08T23:55:26;28.98;;;19.70;;
11267;SDS011;72685;47.474;9.416;2024-03-08T23:58:01;29.13;;;19.55;;
